Time;durP1;ratioP1;P1;durP2;ratioP2;P2;SDS_P1;SDS_P2;PMS_P1;PMS_P2;Temp;Humidity;BMP_temperature;BMP_pressure;BME280_temperature;BME280_humidity;BME280_pressure;Samples;Min_cycle;Max_cycle;Signal;HPM_P1;HPM_P2
2024/01/01 00:00:54;;;;;;;2.08;1.92;;;;;;;9.29;69.12;99690.78;5089579;28;20032;-78
2024/01/01 00:03:20;;;;;;;1.58;1.55;;;;;;;9.41;68.97;99684.25;5082847;28;20089;-78
2024/01/01 00:05:46;;;;;;;0.95;0.95;;;;;;;9.31;69.28;99686.34;5104680;28;20019;-77
2024/01/01 00:08:12;;;;;;;0.40;0.40;;;;;;;9.32;69.20;99674.84;5096251;28;20095;-78
2024/01/01 00:10:38;;;;;;;1.95;1.85;;;;;;;9.35;68.95;99676.53;5081892;28;20073;-78
2024/01/01 00:13:04;;;;;;;0.30;0.30;;;;;;;9.24;69.14;99674.22;5080327;28;20044;-78
2024/01/01 00:15:31;;;;;;;0.47;0.47;;;;;;;9.35;69.10;99684.44;5093025;28;20032;-79
2024/01/01 00:17:57;;;;;;;0.40;0.40;;;;;;;9.18;69.26;99698.22;5087073;28;20482;-78
2024/01/01 00:20:23;;;;;;;2.30;0.90;;;;;;;9.30;69.15;99720.75;5085867;28;20029;-79
2024/01/01 00:22:49;;;;;;;0.10;0.10;;;;;;;9.21;69.11;99691.06;5104160;28;20020;-79
2024/01/01 00:25:16;;;;;;;0.35;0.35;;;;;;;9.17;68.95;99684.16;5089661;28;20052;-78
2024/01/01 00:27:42;;;;;;;0.35;0.35;;;;;;;9.15;69.35;99698.34;5089197;28;20032;-79
2024/01/01 00:30:08;;;;;;;2.05;1.95;;;;;;;9.24;69.17;99682.16;5100552;28;20028;-79
2024/01/01 00:32:34;;;;;;;0.38;0.38;;;;;;;9.16;69.60;99713.25;5091393;28;20039;-79
2024/01/01 00:35:01;;;;;;;1.75;1.67;;;;;;;9.12;69.56;99698.41;5086942;28;20052;-80
2024/01/01 00:37:27;;;;;;;0.38;0.38;;;;;;;9.13;69.33;99723.94;5093399;28;20121;-79
2024/01/01 00:39:55;;;;;;;0.45;0.45;;;;;;;9.20;69.33;99707.81;5102541;28;20495;-79
2024/01/01 00:42:22;;;;;;;0.90;0.90;;;;;;;9.23;69.41;99698.91;5087735;28;20513;-79
2024/01/01 00:44:48;;;;;;;0.95;0.95;;;;;;;9.12;70.78;99690.47;5090094;28;20031;-78
2024/01/01 00:47:14;;;;;;;0.20;0.20;;;;;;;9.13;70.87;99686.94;5101448;28;20028;-77
2024/01/01 00:49:40;;;;;;;1.05;1.05;;;;;;;9.13;71.26;99700.16;5089659;28;20020;-78
2024/01/01 00:52:07;;;;;;;0.25;0.25;;;;;;;9.11;71.45;99684.34;5089214;28;20032;-78
2024/01/01 00:54:33;;;;;;;0.32;0.32;;;;;;;9.05;71.56;99695.97;5103629;28;20053;-78
2024/01/01 00:56:59;;;;;;;0.25;0.25;;;;;;;8.97;71.43;99698.00;5087732;28;20025;-78
2024/01/01 00:59:26;;;;;;;0.40;0.40;;;;;;;9.04;71.60;99685.47;5087717;28;20089;-78
2024/01/01 01:01:52;;;;;;;3.45;3.13;;;;;;;8.98;71.33;99691.78;5095710;28;20039;-78
2024/01/01 01:04:18;;;;;;;0.50;0.50;;;;;;;8.87;71.42;99689.50;5083264;28;20060;-78
2024/01/01 01:06:45;;;;;;;0.85;0.85;;;;;;;8.86;71.10;99686.88;5091042;28;20029;-79
2024/01/01 01:09:12;;;;;;;0.22;0.22;;;;;;;8.93;71.31;99703.44;5086584;28;20058;-79
2024/01/01 01:11:40;;;;;;;0.20;0.20;;;;;;;9.03;70.72;99694.28;5081218;28;20085;-79
2024/01/01 01:14:07;;;;;;;0.38;0.38;;;;;;;8.99;70.83;99704.09;5089724;28;20039;-78
2024/01/01 01:16:34;;;;;;;0.63;0.63;;;;;;;9.12;70.50;99690.47;5109606;28;20657;-79
2024/01/01 01:19:00;;;;;;;0.20;0.20;;;;;;;9.07;70.37;99687.97;5093788;28;20030;-79
2024/01/01 01:21:26;;;;;;;0.10;0.10;;;;;;;9.02;70.67;99698.72;5084266;28;20032;-79
2024/01/01 01:23:52;;;;;;;3.55;2.00;;;;;;;8.95;70.75;99728.88;5090587;28;20028;-79
2024/01/01 01:26:19;;;;;;;0.10;0.10;;;;;;;9.07;70.47;99710.00;5106865;28;20454;-78
2024/01/01 01:28:45;;;;;;;0.20;0.20;;;;;;;9.11;70.51;99717.81;5097296;28;20028;-78
2024/01/01 01:31:11;;;;;;;0.32;0.32;;;;;;;9.20;70.55;99736.03;5103000;28;20053;-77
2024/01/01 01:33:37;;;;;;;2.80;2.58;;;;;;;9.23;70.41;99730.63;5087712;28;20031;-79
2024/01/01 01:36:04;;;;;;;0.55;0.55;;;;;;;9.08;70.75;99729.34;5085125;28;20033;-80
2024/01/01 01:38:31;;;;;;;0.20;0.20;;;;;;;9.19;70.96;99739.59;5081961;28;20449;-77
2024/01/01 01:40:58;;;;;;;0.13;0.13;;;;;;;9.26;70.83;99741.13;5087784;28;20036;-78
2024/01/01 01:43:25;;;;;;;0.20;0.20;;;;;;;9.25;70.93;99747.31;5090298;28;20035;-77
2024/01/01 01:45:52;;;;;;;0.10;0.10;;;;;;;9.20;71.39;99754.53;5093187;28;20021;-77
2024/01/01 01:48:20;;;;;;;0.10;0.10;;;;;;;9.16;71.68;99750.25;5086479;28;20077;-79
2024/01/01 01:50:49;;;;;;;0.20;0.20;;;;;;;9.23;71.94;99759.72;5083354;28;20028;-78
2024/01/01 01:53:23;;;;;;;0.30;0.30;;;;;;;9.17;72.00;99757.25;5081420;28;20031;-78
2024/01/01 01:55:52;;;;;;;0.10;0.10;;;;;;;9.11;72.43;99744.25;5084320;28;20032;-76
2024/01/01 01:58:18;;;;;;;0.20;0.20;;;;;;;8.95;72.91;99763.22;5097776;28;20028;-76
2024/01/01 02:00:47;;;;;;;0.20;0.20;;;;;;;8.85;73.44;99753.88;5100164;28;20065;-79
2024/01/01 02:03:13;;;;;;;0.20;0.20;;;;;;;8.93;73.06;99759.75;5089631;28;20077;-79
2024/01/01 02:05:40;;;;;;;0.10;0.10;;;;;;;8.87;73.70;99752.03;5091441;28;20084;-79
2024/01/01 02:08:07;;;;;;;0.10;0.10;;;;;;;8.95;73.52;99759.69;5083238;28;20059;-79
2024/01/01 02:10:33;;;;;;;0.10;0.10;;;;;;;8.95;73.40;99752.66;5095524;28;20025;-80
2024/01/01 02:13:00;;;;;;;0.47;0.47;;;;;;;9.00;73.42;99748.09;5086941;28;20551;-79
2024/01/01 02:15:27;;;;;;;0.10;0.10;;;;;;;8.88;73.89;99749.34;5101623;28;20059;-78
2024/01/01 02:17:53;;;;;;;0.20;0.20;;;;;;;8.84;74.49;99757.41;5089064;28;20032;-80
2024/01/01 02:20:20;;;;;;;0.10;0.10;;;;;;;8.82;74.42;99759.22;5096604;28;20029;-78
2024/01/01 02:22:46;;;;;;;0.20;0.20;;;;;;;8.85;74.61;99764.44;5100520;28;20056;-80
2024/01/01 02:25:12;;;;;;;0.47;0.47;;;;;;;8.84;74.83;99765.34;5087964;28;20051;-79
2024/01/01 02:27:40;;;;;;;0.55;0.55;;;;;;;8.91;74.62;99753.69;5099558;28;20087;-79
2024/01/01 02:30:10;;;;;;;0.73;0.73;;;;;;;8.91;74.51;99766.88;5091447;28;20059;-79
2024/01/01 02:32:38;;;;;;;0.10;0.10;;;;;;;8.89;74.77;99766.06;5088928;28;20032;-80
2024/01/01 02:35:09;;;;;;;0.17;0.17;;;;;;;8.99;74.13;99771.94;5088701;28;20037;-81
2024/01/01 02:37:39;;;;;;;0.20;0.20;;;;;;;8.85;75.36;99775.00;5085936;28;20070;-79
2024/01/01 02:40:08;;;;;;;0.15;0.15;;;;;;;8.89;75.41;99772.19;5084239;28;20024;-80
2024/01/01 02:42:34;;;;;;;0.20;0.20;;;;;;;8.99;75.02;99762.22;5098013;28;20205;-78
2024/01/01 02:45:00;;;;;;;0.10;0.10;;;;;;;9.05;74.88;99753.25;5105311;28;20047;-77
2024/01/01 02:47:27;;;;;;;0.10;0.10;;;;;;;9.09;74.85;99760.16;5093679;28;20028;-79
2024/01/01 02:49:53;;;;;;;0.70;0.70;;;;;;;9.13;74.48;99767.06;5088951;28;20035;-78
2024/01/01 02:52:19;;;;;;;0.10;0.10;;;;;;;9.17;74.83;99767.84;5084400;28;20476;-79
2024/01/01 02:54:45;;;;;;;0.10;0.10;;;;;;;9.13;75.00;99758.28;5104569;28;20024;-79
2024/01/01 02:57:12;;;;;;;2.15;2.08;;;;;;;9.02;75.32;99770.06;5084965;28;20099;-79
2024/01/01 02:59:39;;;;;;;0.10;0.10;;;;;;;8.94;75.97;99772.06;5082510;28;20035;-80
2024/01/01 03:02:07;;;;;;;0.10;0.10;;;;;;;8.99;75.63;99777.22;5073214;28;20033;-79
2024/01/01 03:04:33;;;;;;;0.10;0.10;;;;;;;9.10;75.12;99758.38;5074313;28;20479;-80
2024/01/01 03:07:00;;;;;;;0.50;0.50;;;;;;;9.11;75.20;99760.09;5074640;28;20063;-79
2024/01/01 03:09:26;;;;;;;0.10;0.10;;;;;;;9.15;75.22;99767.88;5076329;28;20585;-78
2024/01/01 03:11:53;;;;;;;0.13;0.13;;;;;;;9.05;75.24;99772.59;5096900;28;20057;-78
2024/01/01 03:14:19;;;;;;;0.17;0.17;;;;;;;9.20;75.33;99773.03;5098910;28;20028;-78
2024/01/01 03:16:45;;;;;;;0.15;0.15;;;;;;;9.31;74.72;99762.09;5097925;28;20009;-80
2024/01/01 03:19:12;;;;;;;0.20;0.20;;;;;;;9.25;75.23;99771.13;5091926;28;20028;-81
2024/01/01 03:21:38;;;;;;;0.10;0.10;;;;;;;9.23;74.92;99771.16;5085620;28;20044;-80
2024/01/01 03:24:05;;;;;;;0.10;0.10;;;;;;;9.22;75.35;99784.41;5091445;28;20396;-80
2024/01/01 03:26:31;;;;;;;0.20;0.20;;;;;;;9.24;75.34;99779.94;5093010;28;20024;-80
2024/01/01 03:28:57;;;;;;;0.10;0.10;;;;;;;9.25;75.49;99789.63;5104019;28;20381;-80
2024/01/01 03:31:24;;;;;;;0.10;0.10;;;;;;;9.27;75.15;99793.09;5083703;28;20067;-79
2024/01/01 03:33:50;;;;;;;0.10;0.10;;;;;;;9.20;75.12;99796.81;5097848;28;20028;-79
2024/01/01 03:36:16;;;;;;;0.20;0.20;;;;;;;9.29;75.36;99795.66;5104775;28;20066;-80
2024/01/01 03:38:42;;;;;;;0.10;0.10;;;;;;;9.35;75.26;99784.91;5098278;28;20145;-78
2024/01/01 03:41:08;;;;;;;0.85;0.85;;;;;;;9.44;75.22;99789.03;5098185;28;20046;-78
2024/01/01 03:43:34;;;;;;;15.70;2.58;;;;;;;9.44;74.69;99773.16;5093381;28;20056;-77
2024/01/01 03:46:01;;;;;;;0.17;0.17;;;;;;;9.43;75.07;99777.56;5097043;28;20490;-78
2024/01/01 03:48:27;;;;;;;0.10;0.10;;;;;;;9.38;74.84;99801.53;5081986;28;20131;-77
2024/01/01 03:50:54;;;;;;;0.15;0.15;;;;;;;9.32;75.23;99785.88;5090753;28;20059;-79
2024/01/01 03:53:20;;;;;;;0.10;0.10;;;;;;;9.43;75.19;99776.72;5096996;28;20028;-79
2024/01/01 03:55:46;;;;;;;0.30;0.30;;;;;;;9.25;75.26;99794.91;5102901;28;20036;-79
2024/01/01 03:58:12;;;;;;;0.30;0.30;;;;;;;9.41;75.00;99784.72;5100381;28;20079;-79
2024/01/01 04:00:38;;;;;;;0.13;0.13;;;;;;;9.42;74.75;99788.22;5100158;28;20483;-81
2024/01/01 04:03:04;;;;;;;0.10;0.10;;;;;;;9.32;74.99;99790.28;5104501;28;20036;-78
2024/01/01 04:05:31;;;;;;;0.10;0.10;;;;;;;9.38;75.16;99803.28;5097982;28;20098;-80
2024/01/01 04:07:57;;;;;;;0.20;0.20;;;;;;;9.37;75.43;99798.91;5100730;28;20503;-78
2024/01/01 04:10:23;;;;;;;0.35;0.35;;;;;;;9.33;75.54;99805.22;5084625;28;20637;-78
2024/01/01 04:12:50;;;;;;;0.10;0.10;;;;;;;9.32;75.42;99820.22;5084762;28;20036;-80
2024/01/01 04:15:16;;;;;;;0.20;0.20;;;;;;;9.36;75.28;99821.84;5101086;28;20054;-79
2024/01/01 04:17:42;;;;;;;0.10;0.10;;;;;;;9.41;74.92;99807.63;5085324;28;20029;-80
2024/01/01 04:20:10;;;;;;;0.10;0.10;;;;;;;9.39;74.97;99797.97;5080503;28;20029;-80
2024/01/01 04:22:40;;;;;;;0.10;0.10;;;;;;;9.27;75.27;99824.81;5096869;28;20038;-79
2024/01/01 04:25:06;;;;;;;0.20;0.20;;;;;;;9.29;75.51;99827.38;5091087;28;20050;-80
2024/01/01 04:27:34;;;;;;;0.10;0.10;;;;;;;9.29;75.46;99822.97;5099947;28;20048;-77
2024/01/01 04:30:00;;;;;;;0.20;0.20;;;;;;;9.33;75.42;99813.16;5102030;28;20502;-79
2024/01/01 04:32:26;;;;;;;0.15;0.15;;;;;;;9.37;75.37;99815.66;5097705;28;20031;-79
2024/01/01 04:34:52;;;;;;;0.20;0.20;;;;;;;9.33;75.14;99821.97;5094293;28;20083;-79
2024/01/01 04:37:19;;;;;;;0.10;0.10;;;;;;;9.34;75.56;99825.47;5100605;28;20036;-79
2024/01/01 04:39:45;;;;;;;0.10;0.10;;;;;;;9.33;75.28;99832.53;5093144;28;20028;-79
2024/01/01 04:42:11;;;;;;;0.10;0.10;;;;;;;9.31;75.35;99838.75;5087329;28;20048;-79
2024/01/01 04:44:37;;;;;;;0.40;0.40;;;;;;;9.50;74.75;99845.22;5087488;28;20055;-79
2024/01/01 04:47:03;;;;;;;0.30;0.30;;;;;;;9.35;75.47;99848.34;5108150;28;20016;-80
2024/01/01 04:49:30;;;;;;;0.10;0.10;;;;;;;9.47;74.91;99839.16;5108217;28;20028;-79
2024/01/01 04:51:56;;;;;;;0.20;0.20;;;;;;;9.23;75.90;99849.56;5094494;28;20047;-80
2024/01/01 04:54:22;;;;;;;0.10;0.10;;;;;;;9.32;75.76;99844.03;5097069;28;20028;-78
2024/01/01 04:56:48;;;;;;;1.05;1.05;;;;;;;9.35;75.12;99845.72;5099220;28;20075;-80
2024/01/01 04:59:15;;;;;;;0.20;0.20;;;;;;;9.31;75.50;99842.28;5099534;28;20421;-79
2024/01/01 05:01:41;;;;;;;0.10;0.10;;;;;;;9.36;75.44;99837.72;5105777;28;20024;-79
2024/01/01 05:04:07;;;;;;;0.10;0.10;;;;;;;9.30;75.47;99845.84;5102682;28;20028;-79
2024/01/01 05:06:33;;;;;;;0.20;0.20;;;;;;;9.38;75.07;99854.41;5104276;28;20020;-80
2024/01/01 05:08:59;;;;;;;0.20;0.20;;;;;;;9.36;75.09;99855.38;5091474;28;20120;-80
2024/01/01 05:11:25;;;;;;;0.10;0.10;;;;;;;9.47;74.84;99873.53;5096236;28;20031;-80
2024/01/01 05:13:52;;;;;;;0.10;0.10;;;;;;;9.35;75.01;99857.13;5097502;28;20043;-80
2024/01/01 05:16:19;;;;;;;0.10;0.10;;;;;;;9.46;74.87;99861.22;5099136;28;20040;-80
2024/01/01 05:18:45;;;;;;;1.95;0.95;;;;;;;9.44;74.83;99863.06;5098649;28;20039;-79
2024/01/01 05:21:11;;;;;;;0.10;0.10;;;;;;;9.36;75.14;99866.81;5104194;28;20452;-80
2024/01/01 05:23:37;;;;;;;0.10;0.10;;;;;;;9.39;74.88;99879.94;5101439;28;20024;-79
2024/01/01 05:26:04;;;;;;;0.10;0.10;;;;;;;9.40;74.99;99880.78;5101528;28;20044;-79
2024/01/01 05:28:30;;;;;;;0.15;0.15;;;;;;;9.39;74.65;99887.00;5099571;28;20037;-80
2024/01/01 05:30:56;;;;;;;0.10;0.10;;;;;;;9.49;74.84;99899.00;5100398;28;20032;-79
2024/01/01 05:33:23;;;;;;;0.20;0.20;;;;;;;9.42;75.08;99891.31;5097936;28;20024;-77
2024/01/01 05:35:49;;;;;;;0.10;0.10;;;;;;;9.48;74.83;99896.41;5097924;28;20094;-80
2024/01/01 05:38:17;;;;;;;0.10;0.10;;;;;;;9.34;75.35;99897.69;5103039;28;20091;-78
2024/01/01 05:40:45;;;;;;;0.20;0.20;;;;;;;9.32;75.72;99898.66;5098155;28;20060;-79
2024/01/01 05:43:12;;;;;;;0.10;0.10;;;;;;;9.35;75.37;99901.22;5093150;28;20048;-80
2024/01/01 05:45:38;;;;;;;0.10;0.10;;;;;;;9.33;75.42;99897.75;5090762;28;20096;-80
2024/01/01 05:48:04;;;;;;;0.10;0.10;;;;;;;9.35;75.41;99906.50;5092465;28;20027;-78
2024/01/01 05:50:31;;;;;;;0.10;0.10;;;;;;;9.32;75.15;99907.47;5091135;28;20499;-78
2024/01/01 05:52:58;;;;;;;0.10;0.10;;;;;;;9.32;75.08;99910.13;5095095;28;20051;-78
2024/01/01 05:55:24;;;;;;;0.10;0.10;;;;;;;9.37;75.00;99926.69;5080941;28;20683;-79
2024/01/01 05:57:50;;;;;;;0.17;0.17;;;;;;;9.34;75.02;99937.34;5087359;28;20474;-79
2024/01/01 06:00:19;;;;;;;0.10;0.10;;;;;;;9.39;75.22;99945.16;5099177;28;20098;-78
2024/01/01 06:02:45;;;;;;;0.10;0.10;;;;;;;9.36;75.08;99950.53;5106736;28;20115;-78
2024/01/01 06:05:11;;;;;;;0.10;0.10;;;;;;;9.35;75.31;99933.78;5099214;28;20024;-78
2024/01/01 06:07:37;;;;;;;0.10;0.10;;;;;;;9.27;75.94;99930.53;5093907;28;20036;-79
2024/01/01 06:10:03;;;;;;;0.20;0.20;;;;;;;9.41;75.30;99934.53;5091341;28;20028;-79
2024/01/01 06:12:29;;;;;;;0.10;0.10;;;;;;;9.38;75.37;99946.06;5087500;28;20398;-79
2024/01/01 06:14:56;;;;;;;0.20;0.20;;;;;;;9.29;75.20;99963.06;5096585;28;20047;-80
2024/01/01 06:17:22;;;;;;;0.10;0.10;;;;;;;9.36;75.08;99956.69;5097397;28;20020;-78
2024/01/01 06:19:50;;;;;;;0.10;0.10;;;;;;;9.39;75.27;99959.25;5098910;28;20039;-78
2024/01/01 06:22:16;;;;;;;0.15;0.15;;;;;;;9.28;75.67;99956.03;5104299;28;20024;-79
2024/01/01 06:24:43;;;;;;;0.35;0.35;;;;;;;9.31;75.68;99955.06;5096175;28;20031;-80
2024/01/01 06:27:09;;;;;;;0.10;0.10;;;;;;;9.41;75.50;99958.31;5083928;28;20527;-80
2024/01/01 06:29:36;;;;;;;0.10;0.10;;;;;;;9.35;75.15;99973.44;5085975;28;20028;-79
2024/01/01 06:32:03;;;;;;;0.10;0.10;;;;;;;9.31;74.96;99979.75;5087121;28;20055;-79
2024/01/01 06:34:29;;;;;;;0.10;0.10;;;;;;;9.30;75.11;99978.00;5096612;28;20059;-78
2024/01/01 06:36:55;;;;;;;0.20;0.20;;;;;;;9.32;74.97;99981.50;5097757;28;20035;-79
2024/01/01 06:39:21;;;;;;;0.20;0.20;;;;;;;9.36;75.37;99996.34;5092854;28;20032;-79
2024/01/01 06:41:48;;;;;;;0.25;0.25;;;;;;;9.44;74.93;100001.41;5097653;28;20073;-78
2024/01/01 06:44:14;;;;;;;0.20;0.20;;;;;;;9.34;75.38;100000.78;5098876;28;20047;-79
2024/01/01 06:46:40;;;;;;;0.15;0.15;;;;;;;9.27;75.84;99999.25;5104807;28;20154;-79
2024/01/01 06:49:06;;;;;;;0.10;0.10;;;;;;;9.41;75.35;100008.56;5102403;28;20032;-78
2024/01/01 06:51:33;;;;;;;0.20;0.20;;;;;;;9.33;75.63;100029.94;5094139;28;20027;-77
2024/01/01 06:53:59;;;;;;;0.20;0.20;;;;;;;9.45;75.69;100039.31;5093543;28;20056;-79
2024/01/01 06:56:25;;;;;;;0.20;0.20;;;;;;;9.41;75.31;100027.06;5084015;28;20032;-78
2024/01/01 06:58:51;;;;;;;0.10;0.10;;;;;;;9.49;75.17;100033.00;5095658;28;20028;-79
2024/01/01 07:01:17;;;;;;;0.20;0.20;;;;;;;9.38;75.63;100035.94;5094880;28;20032;-77
2024/01/01 07:03:44;;;;;;;0.13;0.13;;;;;;;9.33;75.52;100035.22;5088002;28;20043;-79
2024/01/01 07:06:10;;;;;;;0.20;0.20;;;;;;;9.30;75.62;100035.31;5084937;28;20432;-78
2024/01/01 07:08:39;;;;;;;0.20;0.20;;;;;;;9.38;75.07;100028.00;5083203;28;20502;-79
2024/01/01 07:11:05;;;;;;;0.20;0.20;;;;;;;9.39;74.98;100045.63;5084371;28;20032;-79
2024/01/01 07:13:31;;;;;;;0.50;0.50;;;;;;;9.47;74.68;100053.31;5085246;28;20536;-78
2024/01/01 07:15:58;;;;;;;0.10;0.10;;;;;;;9.52;74.66;100046.13;5079441;28;20579;-78
2024/01/01 07:18:24;;;;;;;0.20;0.20;;;;;;;9.61;74.42;100059.09;5089303;28;20527;-79
2024/01/01 07:20:51;;;;;;;0.10;0.10;;;;;;;9.63;74.45;100053.75;5075876;28;20032;-78
2024/01/01 07:23:20;;;;;;;0.17;0.17;;;;;;;9.49;75.10;100067.38;5086981;28;20031;-77
2024/01/01 07:25:46;;;;;;;0.20;0.20;;;;;;;9.55;74.98;100097.16;5095105;28;20024;-78
2024/01/01 07:28:13;;;;;;;0.10;0.10;;;;;;;9.59;74.92;100087.38;5093700;28;20027;-79
2024/01/01 07:30:39;;;;;;;0.10;0.10;;;;;;;9.67;74.65;100095.97;5087415;28;20447;-78
2024/01/01 07:33:05;;;;;;;0.55;0.55;;;;;;;9.54;74.83;100097.22;5094432;28;20052;-79
2024/01/01 07:35:32;;;;;;;0.10;0.10;;;;;;;9.57;74.84;100105.06;5093123;28;20081;-78
2024/01/01 07:37:59;;;;;;;0.10;0.10;;;;;;;9.58;74.75;100103.28;5090960;28;20560;-79
2024/01/01 07:40:25;;;;;;;0.10;0.10;;;;;;;9.48;74.30;100114.13;5084381;28;20042;-79
2024/01/01 07:42:51;;;;;;;0.10;0.10;;;;;;;9.50;74.50;100106.16;5089869;28;20151;-78
2024/01/01 07:45:17;;;;;;;0.10;0.10;;;;;;;9.49;73.99;100114.97;5091206;28;20053;-78
2024/01/01 07:47:44;;;;;;;0.20;0.20;;;;;;;9.54;73.90;100126.31;5091103;28;20032;-79
2024/01/01 07:50:11;;;;;;;0.10;0.10;;;;;;;9.48;73.66;100113.25;5082715;28;20491;-77
2024/01/01 07:52:37;;;;;;;0.08;0.08;;;;;;;9.48;73.73;100115.88;5081450;28;20054;-78
2024/01/01 07:55:03;;;;;;;0.10;0.10;;;;;;;9.41;73.96;100116.94;5094659;28;20077;-77
2024/01/01 07:57:30;;;;;;;0.10;0.10;;;;;;;9.46;74.01;100130.91;5077258;28;20492;-78
2024/01/01 07:59:58;;;;;;;0.15;0.15;;;;;;;9.42;74.24;100121.34;5097567;28;20055;-78
2024/01/01 08:02:25;;;;;;;0.13;0.13;;;;;;;9.51;73.79;100126.41;5100806;28;20199;-78
2024/01/01 08:04:51;;;;;;;0.10;0.10;;;;;;;9.42;73.94;100137.22;5093915;28;20032;-80
2024/01/01 08:07:17;;;;;;;0.10;0.10;;;;;;;9.41;73.96;100139.00;5085948;28;20513;-79
2024/01/01 08:09:44;;;;;;;0.10;0.10;;;;;;;9.43;74.00;100146.88;5094463;28;20028;-79
2024/01/01 08:12:10;;;;;;;0.10;0.10;;;;;;;9.52;73.94;100149.25;5079279;28;20387;-80
2024/01/01 08:14:40;;;;;;;0.20;0.20;;;;;;;9.49;73.99;100157.28;5091565;28;20032;-80
2024/01/01 08:17:08;;;;;;;0.10;0.10;;;;;;;9.55;73.63;100157.13;5091898;28;20025;-80
2024/01/01 08:19:34;;;;;;;0.10;0.10;;;;;;;9.46;73.46;100167.94;5093498;28;20016;-80
2024/01/01 08:22:01;;;;;;;0.52;0.40;;;;;;;9.51;72.99;100161.63;5097430;28;20043;-80
2024/01/01 08:24:27;;;;;;;0.10;0.10;;;;;;;9.54;72.34;100153.63;5098698;28;20028;-79
2024/01/01 08:26:53;;;;;;;0.10;0.10;;;;;;;9.55;71.57;100170.34;5105327;28;20049;-79
2024/01/01 08:29:19;;;;;;;0.10;0.10;;;;;;;9.65;71.49;100174.47;5105670;28;20043;-78
2024/01/01 08:31:45;;;;;;;0.10;0.10;;;;;;;9.60;70.62;100180.81;5095106;28;20081;-78
2024/01/01 08:34:12;;;;;;;0.82;0.82;;;;;;;9.61;70.16;100170.19;5089585;28;20028;-78
2024/01/01 08:36:38;;;;;;;0.10;0.10;;;;;;;9.61;69.94;100182.53;5086808;28;20031;-79
2024/01/01 08:39:04;;;;;;;0.20;0.20;;;;;;;9.54;69.81;100198.59;5088802;28;20113;-79
2024/01/01 08:41:30;;;;;;;4.25;0.90;;;;;;;9.58;70.17;100201.13;5091009;28;20028;-79
2024/01/01 08:43:56;;;;;;;0.10;0.10;;;;;;;9.64;69.85;100199.19;5084501;28;20036;-78
2024/01/01 08:46:25;;;;;;;0.10;0.10;;;;;;;9.60;70.15;100217.84;5077538;28;20032;-78
2024/01/01 08:48:52;;;;;;;0.20;0.20;;;;;;;9.65;70.03;100224.72;5077669;28;20491;-79
2024/01/01 08:51:19;;;;;;;0.10;0.10;;;;;;;9.63;69.29;100223.03;5078533;28;20107;-79
2024/01/01 08:53:45;;;;;;;0.20;0.20;;;;;;;9.64;70.22;100225.63;5095567;28;20036;-78
2024/01/01 08:56:11;;;;;;;0.10;0.10;;;;;;;9.60;69.89;100229.28;5099716;28;20036;-79
2024/01/01 08:58:38;;;;;;;0.10;0.10;;;;;;;9.61;69.85;100236.31;5094120;28;20061;-79
2024/01/01 09:01:06;;;;;;;0.10;0.10;;;;;;;9.58;69.93;100231.09;5093637;28;20645;-78
2024/01/01 09:03:32;;;;;;;0.68;0.68;;;;;;;9.57;69.69;100239.94;5091726;28;20044;-79
2024/01/01 09:05:59;;;;;;;0.55;0.55;;;;;;;9.59;69.46;100247.84;5093102;28;20032;-79
2024/01/01 09:08:25;;;;;;;0.20;0.20;;;;;;;9.55;69.78;100260.28;5092906;28;20503;-78
2024/01/01 09:10:51;;;;;;;0.30;0.30;;;;;;;9.53;69.71;100248.84;5092318;28;20403;-79
2024/01/01 09:13:18;;;;;;;0.10;0.10;;;;;;;9.47;70.20;100255.19;5094115;28;20306;-77
2024/01/01 09:15:44;;;;;;;1.65;1.45;;;;;;;9.50;69.92;100248.94;5099204;28;20612;-79
2024/01/01 09:18:10;;;;;;;0.10;0.10;;;;;;;9.58;69.86;100260.19;5101662;28;20028;-77
2024/01/01 09:20:41;;;;;;;0.20;0.20;;;;;;;9.56;70.10;100248.78;5096675;28;20035;-78
2024/01/01 09:23:08;;;;;;;0.10;0.10;;;;;;;9.58;69.88;100257.53;5093378;28;20032;-80
2024/01/01 09:25:39;;;;;;;0.13;0.13;;;;;;;9.62;69.88;100258.31;5091490;28;20036;-80
2024/01/01 09:28:05;;;;;;;0.10;0.10;;;;;;;9.63;69.92;100265.34;5094082;28;20036;-80
2024/01/01 09:30:31;;;;;;;0.10;0.10;;;;;;;9.60;69.85;100261.03;5093100;28;20032;-78
2024/01/01 09:32:58;;;;;;;1.17;1.08;;;;;;;9.68;70.01;100274.94;5090837;28;20030;-79
2024/01/01 09:35:24;;;;;;;0.10;0.10;;;;;;;9.75;69.87;100274.78;5095148;28;20039;-80
2024/01/01 09:37:53;;;;;;;0.10;0.10;;;;;;;9.78;70.07;100280.84;5098648;28;20048;-79
2024/01/01 09:40:21;;;;;;;0.10;0.10;;;;;;;9.83;70.02;100286.00;5089908;28;20039;-77
2024/01/01 09:42:48;;;;;;;0.10;0.10;;;;;;;9.84;70.05;100286.00;5095926;28;20028;-77
2024/01/01 09:45:15;;;;;;;0.13;0.13;;;;;;;9.82;70.26;100286.91;5100856;28;20036;-78
2024/01/01 09:47:42;;;;;;;0.10;0.10;;;;;;;9.84;70.09;100293.03;5085001;28;20032;-78
2024/01/01 09:50:09;;;;;;;0.10;0.10;;;;;;;9.79;70.09;100287.00;5099341;28;20728;-76
2024/01/01 09:52:36;;;;;;;0.10;0.10;;;;;;;9.85;69.97;100292.13;5104554;28;20020;-78
2024/01/01 09:55:03;;;;;;;0.17;0.17;;;;;;;9.85;69.95;100303.56;5090581;28;20067;-78
2024/01/01 09:57:30;;;;;;;0.10;0.10;;;;;;;9.86;69.87;100300.03;5088566;28;20066;-78
2024/01/01 09:59:56;;;;;;;0.20;0.20;;;;;;;9.87;69.63;100308.84;5079615;28;20032;-78
2024/01/01 10:02:24;;;;;;;0.20;0.20;;;;;;;9.92;69.51;100314.00;5090432;28;20522;-78
2024/01/01 10:04:50;;;;;;;0.10;0.10;;;;;;;9.91;69.53;100330.81;5086897;28;20535;-76
2024/01/01 10:07:31;;;;;;;0.20;0.20;;;;;;;10.06;69.01;100326.91;5091698;28;20399;-78
2024/01/01 10:09:57;;;;;;;0.10;0.10;;;;;;;10.02;68.83;100326.13;5089111;28;20024;-78
2024/01/01 10:12:24;;;;;;;0.10;0.10;;;;;;;9.96;68.64;100332.44;5086416;28;20093;-78
2024/01/01 10:14:51;;;;;;;0.10;0.10;;;;;;;10.10;67.72;100337.34;5079549;28;20090;-78
2024/01/01 10:17:18;;;;;;;0.10;0.10;;;;;;;10.09;68.12;100348.84;5091511;28;20045;-78
2024/01/01 10:19:51;;;;;;;0.10;0.10;;;;;;;10.23;67.24;100340.56;5095528;28;20093;-78
2024/01/01 10:22:18;;;;;;;0.20;0.20;;;;;;;10.22;67.11;100338.81;5090564;28;20028;-79
2024/01/01 10:24:47;;;;;;;0.10;0.10;;;;;;;10.21;66.63;100352.97;5091717;28;20088;-79
2024/01/01 10:27:18;;;;;;;0.20;0.20;;;;;;;10.31;66.90;100349.16;5103512;28;20098;-77
2024/01/01 10:29:47;;;;;;;19.63;1.65;;;;;;;10.25;66.55;100354.59;5101318;28;20116;-76
2024/01/01 10:32:20;;;;;;;0.20;0.20;;;;;;;10.29;65.96;100350.09;5090238;28;20028;-79
2024/01/01 10:34:47;;;;;;;0.10;0.10;;;;;;;10.35;66.15;100345.53;5103972;28;20035;-79
2024/01/01 10:37:15;;;;;;;0.57;0.57;;;;;;;10.42;66.65;100354.19;5091897;28;20052;-77
2024/01/01 10:39:45;;;;;;;0.10;0.10;;;;;;;10.48;65.72;100363.75;5085263;28;20063;-78
2024/01/01 10:42:11;;;;;;;0.10;0.10;;;;;;;10.58;65.44;100346.69;5083654;28;20036;-80
2024/01/01 10:44:39;;;;;;;0.10;0.10;;;;;;;10.63;65.54;100355.38;5086970;28;20028;-78
2024/01/01 10:47:10;;;;;;;0.43;0.43;;;;;;;10.60;64.53;100355.47;5087991;28;20036;-78
2024/01/01 10:49:42;;;;;;;0.10;0.10;;;;;;;10.70;64.24;100350.78;5099451;28;20032;-77
2024/01/01 11:00:53;;;;;;;0.55;0.55;;;;;;;11.08;63.91;100347.91;5117451;27;20331;-78
2024/01/01 11:03:19;;;;;;;0.45;0.45;;;;;;;11.15;63.04;100350.34;5084422;28;20043;-78
2024/01/01 11:05:49;;;;;;;0.32;0.32;;;;;;;11.19;63.42;100375.00;5089382;28;20512;-78
2024/01/01 11:08:26;;;;;;;0.10;0.10;;;;;;;11.42;62.47;100365.47;5087866;28;20047;-78
2024/01/01 11:10:54;;;;;;;0.10;0.10;;;;;;;11.37;62.24;100351.47;5085657;28;20025;-78
2024/01/01 11:16:04;;;;;;;0.17;0.17;;;;;;;11.54;62.48;100370.38;5110695;27;1221571;-79
2024/01/01 11:18:34;;;;;;;0.10;0.10;;;;;;;11.61;62.30;100366.63;5132681;28;20028;-78
2024/01/01 11:21:01;;;;;;;0.10;0.10;;;;;;;11.67;62.25;100373.50;5117781;28;20233;-79
2024/01/01 11:23:47;;;;;;;0.20;0.20;;;;;;;11.69;61.26;100378.75;5113033;28;20070;-78
2024/01/01 11:28:52;;;;;;;0.50;0.50;;;;;;;11.36;61.06;100376.25;5110716;27;1246379;-78
2024/01/01 11:31:19;;;;;;;0.30;0.30;;;;;;;11.36;60.63;100385.06;5109373;28;20036;-78
2024/01/01 11:33:45;;;;;;;2.38;1.17;;;;;;;11.15;61.34;100383.94;5107929;28;20064;-77
2024/01/01 11:36:12;;;;;;;0.68;0.68;;;;;;;11.10;61.33;100391.16;5122250;28;20020;-78
2024/01/01 11:38:39;;;;;;;0.10;0.10;;;;;;;10.94;61.01;100396.03;5123600;28;20390;-79
2024/01/01 11:41:05;;;;;;;0.10;0.10;;;;;;;11.03;61.73;100400.19;5115543;28;20032;-76
2024/01/01 11:43:33;;;;;;;0.10;0.10;;;;;;;10.87;61.88;100397.16;5117651;28;20031;-77
2024/01/01 11:45:59;;;;;;;0.20;0.20;;;;;;;10.92;61.28;100412.00;5117686;28;20024;-77
2024/01/01 11:48:25;;;;;;;0.10;0.10;;;;;;;10.83;61.75;100418.41;5125588;28;20032;-78